sensor_id;sensor_type;location;lat;lon;timestamp;temperature;humidity
36322;DHT22;23564;48.290;11.460;2022-11-04T00:01:14;10.50;1.00
36322;DHT22;23564;48.290;11.460;2022-11-04T00:03:40;10.50;1.00
36322;DHT22;23564;48.290;11.460;2022-11-04T00:06:06;10.50;1.00
36322;DHT22;23564;48.290;11.460;2022-11-04T00:08:32;10.50;1.00
36322;DHT22;23564;48.290;11.460;2022-11-04T00:10:58;10.50;1.00
36322;DHT22;23564;48.290;11.460;2022-11-04T00:13:43;10.60;1.00
36322;DHT22;23564;48.290;11.460;2022-11-04T00:16:09;10.60;1.00
36322;DHT22;23564;48.290;11.460;2022-11-04T00:18:53;10.60;1.00
36322;DHT22;23564;48.290;11.460;2022-11-04T00:21:19;10.60;1.00
36322;DHT22;23564;48.290;11.460;2022-11-04T00:24:04;10.60;1.00
36322;DHT22;23564;48.290;11.460;2022-11-04T00:26:48;10.60;99.90
36322;DHT22;23564;48.290;11.460;2022-11-04T00:29:32;10.60;1.00
36322;DHT22;23564;48.290;11.460;2022-11-04T00:31:58;10.60;99.90
36322;DHT22;23564;48.290;11.460;2022-11-04T00:34:42;10.60;99.90
36322;DHT22;23564;48.290;11.460;2022-11-04T00:37:08;10.60;99.90
36322;DHT22;23564;48.290;11.460;2022-11-04T00:39:33;10.70;99.90
36322;DHT22;23564;48.290;11.460;2022-11-04T00:41:59;10.70;99.90
36322;DHT22;23564;48.290;11.460;2022-11-04T00:44:24;10.70;99.90
36322;DHT22;23564;48.290;11.460;2022-11-04T00:46:50;10.60;99.90
36322;DHT22;23564;48.290;11.460;2022-11-04T00:49:15;10.60;99.90
36322;DHT22;23564;48.290;11.460;2022-11-04T00:51:41;10.60;99.90
36322;DHT22;23564;48.290;11.460;2022-11-04T00:54:07;10.60;99.90
36322;DHT22;23564;48.290;11.460;2022-11-04T00:56:32;10.60;99.90
36322;DHT22;23564;48.290;11.460;2022-11-04T00:59:01;10.50;1.00
36322;DHT22;23564;48.290;11.460;2022-11-04T01:01:26;10.50;1.00
36322;DHT22;23564;48.290;11.460;2022-11-04T01:03:53;10.50;1.00
36322;DHT22;23564;48.290;11.460;2022-11-04T01:06:20;10.50;1.00
36322;DHT22;23564;48.290;11.460;2022-11-04T01:08:46;10.40;1.00
36322;DHT22;23564;48.290;11.460;2022-11-04T01:11:12;10.40;1.00
36322;DHT22;23564;48.290;11.460;2022-11-04T01:13:38;10.40;1.00
36322;DHT22;23564;48.290;11.460;2022-11-04T01:16:07;10.40;1.00
36322;DHT22;23564;48.290;11.460;2022-11-04T01:18:33;10.30;1.00
36322;DHT22;23564;48.290;11.460;2022-11-04T01:21:03;10.20;1.00
36322;DHT22;23564;48.290;11.460;2022-11-04T01:23:29;10.20;1.00
36322;DHT22;23564;48.290;11.460;2022-11-04T01:25:54;10.10;1.00
36322;DHT22;23564;48.290;11.460;2022-11-04T01:28:20;10.00;1.00
36322;DHT22;23564;48.290;11.460;2022-11-04T01:30:46;10.00;1.00
36322;DHT22;23564;48.290;11.460;2022-11-04T01:33:11;10.00;1.00
36322;DHT22;23564;48.290;11.460;2022-11-04T01:35:37;9.90;1.00
36322;DHT22;23564;48.290;11.460;2022-11-04T01:38:03;9.90;1.00
36322;DHT22;23564;48.290;11.460;2022-11-04T01:40:29;9.90;1.00
36322;DHT22;23564;48.290;11.460;2022-11-04T01:42:54;9.80;1.00
36322;DHT22;23564;48.290;11.460;2022-11-04T01:45:20;9.80;1.00
36322;DHT22;23564;48.290;11.460;2022-11-04T01:50:24;9.80;1.00
36322;DHT22;23564;48.290;11.460;2022-11-04T01:56:05;9.70;1.00
36322;DHT22;23564;48.290;11.460;2022-11-04T01:58:43;9.70;1.00
36322;DHT22;23564;48.290;11.460;2022-11-04T02:01:11;9.70;1.00
36322;DHT22;23564;48.290;11.460;2022-11-04T02:06:08;9.70;1.00
36322;DHT22;23564;48.290;11.460;2022-11-04T02:08:37;9.70;1.00
36322;DHT22;23564;48.290;11.460;2022-11-04T02:11:03;9.70;1.00
36322;DHT22;23564;48.290;11.460;2022-11-04T02:13:30;9.70;1.00
36322;DHT22;23564;48.290;11.460;2022-11-04T02:16:10;9.70;1.00
36322;DHT22;23564;48.290;11.460;2022-11-04T02:27:29;9.60;1.00
36322;DHT22;23564;48.290;11.460;2022-11-04T02:37:36;9.60;1.00
36322;DHT22;23564;48.290;11.460;2022-11-04T02:45:47;9.50;1.00
36322;DHT22;23564;48.290;11.460;2022-11-04T02:48:48;9.50;1.00
36322;DHT22;23564;48.290;11.460;2022-11-04T02:51:30;9.50;1.00
36322;DHT22;23564;48.290;11.460;2022-11-04T02:56:38;9.40;1.00
36322;DHT22;23564;48.290;11.460;2022-11-04T02:59:11;9.50;1.00
36322;DHT22;23564;48.290;11.460;2022-11-04T03:01:41;9.40;1.00
36322;DHT22;23564;48.290;11.460;2022-11-04T03:04:14;9.40;1.00
36322;DHT22;23564;48.290;11.460;2022-11-04T03:06:42;9.40;1.00
36322;DHT22;23564;48.290;11.460;2022-11-04T03:09:11;9.40;1.00
36322;DHT22;23564;48.290;11.460;2022-11-04T03:11:40;9.40;1.00
36322;DHT22;23564;48.290;11.460;2022-11-04T03:14:57;9.50;1.00
36322;DHT22;23564;48.290;11.460;2022-11-04T03:17:06;9.40;1.00
36322;DHT22;23564;48.290;11.460;2022-11-04T03:19:41;9.40;1.00
36322;DHT22;23564;48.290;11.460;2022-11-04T03:22:13;9.40;1.00
36322;DHT22;23564;48.290;11.460;2022-11-04T03:24:40;9.40;1.00
36322;DHT22;23564;48.290;11.460;2022-11-04T03:27:18;9.50;1.00
36322;DHT22;23564;48.290;11.460;2022-11-04T03:29:58;9.50;1.00
36322;DHT22;23564;48.290;11.460;2022-11-04T03:35:23;9.40;1.00
36322;DHT22;23564;48.290;11.460;2022-11-04T03:37:49;9.40;1.00
36322;DHT22;23564;48.290;11.460;2022-11-04T03:40:16;9.40;1.00
36322;DHT22;23564;48.290;11.460;2022-11-04T03:42:49;9.40;1.00
36322;DHT22;23564;48.290;11.460;2022-11-04T03:45:17;9.40;1.00
36322;DHT22;23564;48.290;11.460;2022-11-04T03:47:43;9.40;1.00
36322;DHT22;23564;48.290;11.460;2022-11-04T03:52:38;9.40;1.00
36322;DHT22;23564;48.290;11.460;2022-11-04T03:55:05;9.30;1.00
36322;DHT22;23564;48.290;11.460;2022-11-04T04:00:15;9.30;1.00
36322;DHT22;23564;48.290;11.460;2022-11-04T04:05:35;9.30;1.00
36322;DHT22;23564;48.290;11.460;2022-11-04T04:10:39;9.30;1.00
36322;DHT22;23564;48.290;11.460;2022-11-04T04:13:23;9.20;1.00
36322;DHT22;23564;48.290;11.460;2022-11-04T04:15:58;9.20;1.00
36322;DHT22;23564;48.290;11.460;2022-11-04T04:18:33;9.10;1.00
36322;DHT22;23564;48.290;11.460;2022-11-04T04:21:02;9.10;1.00
36322;DHT22;23564;48.290;11.460;2022-11-04T04:23:30;9.20;1.00
36322;DHT22;23564;48.290;11.460;2022-11-04T04:26:18;9.10;1.00
36322;DHT22;23564;48.290;11.460;2022-11-04T04:29:03;9.10;1.00
36322;DHT22;23564;48.290;11.460;2022-11-04T04:31:32;9.20;1.00
36322;DHT22;23564;48.290;11.460;2022-11-04T04:34:20;9.10;1.00
36322;DHT22;23564;48.290;11.460;2022-11-04T04:37:01;9.20;1.00
36322;DHT22;23564;48.290;11.460;2022-11-04T04:39:36;9.20;1.00
36322;DHT22;23564;48.290;11.460;2022-11-04T04:42:22;9.20;1.00
36322;DHT22;23564;48.290;11.460;2022-11-04T04:45:07;9.20;1.00
36322;DHT22;23564;48.290;11.460;2022-11-04T04:47:40;9.20;1.00
36322;DHT22;23564;48.290;11.460;2022-11-04T04:50:07;9.20;1.00
36322;DHT22;23564;48.290;11.460;2022-11-04T04:52:39;9.20;1.00
36322;DHT22;23564;48.290;11.460;2022-11-04T04:55:07;9.20;99.90
36322;DHT22;23564;48.290;11.460;2022-11-04T04:57:32;9.20;99.90
36322;DHT22;23564;48.290;11.460;2022-11-04T04:59:58;9.30;99.90
36322;DHT22;23564;48.290;11.460;2022-11-04T05:02:24;9.30;99.90
36322;DHT22;23564;48.290;11.460;2022-11-04T05:04:49;9.30;99.90
36322;DHT22;23564;48.290;11.460;2022-11-04T05:07:15;9.30;1.00
36322;DHT22;23564;48.290;11.460;2022-11-04T05:09:41;9.30;99.90
36322;DHT22;23564;48.290;11.460;2022-11-04T05:12:06;9.20;1.00
36322;DHT22;23564;48.290;11.460;2022-11-04T05:14:32;9.30;1.00
36322;DHT22;23564;48.290;11.460;2022-11-04T05:16:58;9.20;1.00
36322;DHT22;23564;48.290;11.460;2022-11-04T05:19:23;9.20;1.00
36322;DHT22;23564;48.290;11.460;2022-11-04T05:21:49;9.20;99.90
36322;DHT22;23564;48.290;11.460;2022-11-04T05:24:14;9.20;99.90
36322;DHT22;23564;48.290;11.460;2022-11-04T05:26:40;9.10;99.90
36322;DHT22;23564;48.290;11.460;2022-11-04T05:29:05;9.10;99.90
36322;DHT22;23564;48.290;11.460;2022-11-04T05:31:31;9.10;99.90
36322;DHT22;23564;48.290;11.460;2022-11-04T05:33:56;9.10;99.90
36322;DHT22;23564;48.290;11.460;2022-11-04T05:36:24;9.10;99.90
36322;DHT22;23564;48.290;11.460;2022-11-04T05:38:51;9.10;99.90
36322;DHT22;23564;48.290;11.460;2022-11-04T05:41:18;9.10;99.90
36322;DHT22;23564;48.290;11.460;2022-11-04T05:43:54;9.10;1.00
36322;DHT22;23564;48.290;11.460;2022-11-04T05:46:21;9.10;1.00
36322;DHT22;23564;48.290;11.460;2022-11-04T05:48:47;9.10;99.90
36322;DHT22;23564;48.290;11.460;2022-11-04T05:51:16;9.10;1.00
36322;DHT22;23564;48.290;11.460;2022-11-04T05:53:42;9.00;1.00
36322;DHT22;23564;48.290;11.460;2022-11-04T05:56:08;8.90;1.00
36322;DHT22;23564;48.290;11.460;2022-11-04T05:58:34;8.90;1.00
36322;DHT22;23564;48.290;11.460;2022-11-04T06:01:22;8.90;1.00
36322;DHT22;23564;48.290;11.460;2022-11-04T06:03:48;8.80;1.00
36322;DHT22;23564;48.290;11.460;2022-11-04T06:06:13;8.80;1.00
36322;DHT22;23564;48.290;11.460;2022-11-04T06:08:39;8.80;1.00
36322;DHT22;23564;48.290;11.460;2022-11-04T06:11:05;8.80;1.00
36322;DHT22;23564;48.290;11.460;2022-11-04T06:13:30;8.80;1.00
36322;DHT22;23564;48.290;11.460;2022-11-04T06:15:56;8.80;1.00
36322;DHT22;23564;48.290;11.460;2022-11-04T06:18:21;8.70;1.00
36322;DHT22;23564;48.290;11.460;2022-11-04T06:20:47;8.70;1.00
36322;DHT22;23564;48.290;11.460;2022-11-04T06:23:12;8.60;1.00
36322;DHT22;23564;48.290;11.460;2022-11-04T06:25:38;8.60;1.00
36322;DHT22;23564;48.290;11.460;2022-11-04T06:28:03;8.60;1.00
36322;DHT22;23564;48.290;11.460;2022-11-04T06:30:29;8.60;1.00
36322;DHT22;23564;48.290;11.460;2022-11-04T06:32:54;8.60;1.00
36322;DHT22;23564;48.290;11.460;2022-11-04T06:35:20;8.70;1.00
36322;DHT22;23564;48.290;11.460;2022-11-04T06:37:46;8.70;1.00
36322;DHT22;23564;48.290;11.460;2022-11-04T06:40:11;8.60;1.00
36322;DHT22;23564;48.290;11.460;2022-11-04T06:42:37;8.70;1.00
36322;DHT22;23564;48.290;11.460;2022-11-04T06:45:03;8.70;1.00
36322;DHT22;23564;48.290;11.460;2022-11-04T06:47:29;8.70;1.00
36322;DHT22;23564;48.290;11.460;2022-11-04T06:49:55;8.80;1.00
36322;DHT22;23564;48.290;11.460;2022-11-04T06:52:20;8.80;1.00
36322;DHT22;23564;48.290;11.460;2022-11-04T06:54:46;8.70;1.00
36322;DHT22;23564;48.290;11.460;2022-11-04T06:57:12;8.80;1.00
36322;DHT22;23564;48.290;11.460;2022-11-04T06:59:38;8.80;1.00
36322;DHT22;23564;48.290;11.460;2022-11-04T07:02:04;8.70;1.00
36322;DHT22;23564;48.290;11.460;2022-11-04T07:04:30;8.80;1.00
36322;DHT22;23564;48.290;11.460;2022-11-04T07:06:55;8.80;1.00
36322;DHT22;23564;48.290;11.460;2022-11-04T07:09:21;8.70;1.00
36322;DHT22;23564;48.290;11.460;2022-11-04T07:11:46;8.80;1.00
36322;DHT22;23564;48.290;11.460;2022-11-04T07:14:12;8.70;1.00
36322;DHT22;23564;48.290;11.460;2022-11-04T07:16:38;8.70;1.00
36322;DHT22;23564;48.290;11.460;2022-11-04T07:19:04;8.80;1.00
36322;DHT22;23564;48.290;11.460;2022-11-04T07:21:30;8.80;1.00
36322;DHT22;23564;48.290;11.460;2022-11-04T07:23:56;8.80;1.00
36322;DHT22;23564;48.290;11.460;2022-11-04T07:26:22;8.80;1.00
36322;DHT22;23564;48.290;11.460;2022-11-04T07:28:48;8.80;1.00
36322;DHT22;23564;48.290;11.460;2022-11-04T07:31:13;8.90;1.00
36322;DHT22;23564;48.290;11.460;2022-11-04T07:33:39;8.90;1.00
36322;DHT22;23564;48.290;11.460;2022-11-04T07:36:07;8.90;1.00
36322;DHT22;23564;48.290;11.460;2022-11-04T07:38:33;8.90;1.00
36322;DHT22;23564;48.290;11.460;2022-11-04T07:40:59;9.00;1.00
36322;DHT22;23564;48.290;11.460;2022-11-04T07:43:27;9.00;1.00
36322;DHT22;23564;48.290;11.460;2022-11-04T07:46:03;9.00;1.00
36322;DHT22;23564;48.290;11.460;2022-11-04T07:48:29;9.00;1.00
36322;DHT22;23564;48.290;11.460;2022-11-04T07:50:59;9.00;1.00
36322;DHT22;23564;48.290;11.460;2022-11-04T07:53:26;9.00;1.00
36322;DHT22;23564;48.290;11.460;2022-11-04T07:55:52;9.00;1.00
36322;DHT22;23564;48.290;11.460;2022-11-04T07:58:19;8.90;1.00
36322;DHT22;23564;48.290;11.460;2022-11-04T08:00:45;9.00;1.00
36322;DHT22;23564;48.290;11.460;2022-11-04T08:03:10;9.00;1.00
36322;DHT22;23564;48.290;11.460;2022-11-04T08:05:36;9.00;1.00
36322;DHT22;23564;48.290;11.460;2022-11-04T08:08:01;9.00;1.00
36322;DHT22;23564;48.290;11.460;2022-11-04T08:10:27;9.10;1.00
36322;DHT22;23564;48.290;11.460;2022-11-04T08:12:53;9.10;1.00
36322;DHT22;23564;48.290;11.460;2022-11-04T08:15:18;9.10;1.00
36322;DHT22;23564;48.290;11.460;2022-11-04T08:17:44;9.10;1.00
36322;DHT22;23564;48.290;11.460;2022-11-04T08:20:10;9.10;1.00
36322;DHT22;23564;48.290;11.460;2022-11-04T08:22:36;9.10;1.00
36322;DHT22;23564;48.290;11.460;2022-11-04T08:25:02;9.00;1.00
36322;DHT22;23564;48.290;11.460;2022-11-04T08:27:28;9.10;1.00
36322;DHT22;23564;48.290;11.460;2022-11-04T08:29:54;9.10;1.00
36322;DHT22;23564;48.290;11.460;2022-11-04T08:32:19;9.10;1.00
36322;DHT22;23564;48.290;11.460;2022-11-04T08:34:45;9.10;1.00
36322;DHT22;23564;48.290;11.460;2022-11-04T08:37:14;9.20;1.00
36322;DHT22;23564;48.290;11.460;2022-11-04T08:39:40;9.30;1.00
36322;DHT22;23564;48.290;11.460;2022-11-04T08:42:06;9.30;1.00
36322;DHT22;23564;48.290;11.460;2022-11-04T08:44:32;9.40;1.00
36322;DHT22;23564;48.290;11.460;2022-11-04T08:46:59;9.40;1.00
36322;DHT22;23564;48.290;11.460;2022-11-04T08:49:24;9.40;1.00
36322;DHT22;23564;48.290;11.460;2022-11-04T08:51:50;9.50;1.00
36322;DHT22;23564;48.290;11.460;2022-11-04T08:54:26;9.50;1.00
36322;DHT22;23564;48.290;11.460;2022-11-04T08:56:52;9.50;1.00
36322;DHT22;23564;48.290;11.460;2022-11-04T08:59:18;9.40;1.00
36322;DHT22;23564;48.290;11.460;2022-11-04T09:01:44;9.40;1.00
36322;DHT22;23564;48.290;11.460;2022-11-04T09:04:11;9.30;1.00
36322;DHT22;23564;48.290;11.460;2022-11-04T09:06:41;9.30;1.00
36322;DHT22;23564;48.290;11.460;2022-11-04T09:09:08;9.30;1.00
36322;DHT22;23564;48.290;11.460;2022-11-04T09:11:37;9.40;1.00
36322;DHT22;23564;48.290;11.460;2022-11-04T09:14:04;9.50;1.00
36322;DHT22;23564;48.290;11.460;2022-11-04T09:16:31;9.50;1.00
36322;DHT22;23564;48.290;11.460;2022-11-04T09:18:57;9.50;1.00
36322;DHT22;23564;48.290;11.460;2022-11-04T09:21:24;9.60;1.00
36322;DHT22;23564;48.290;11.460;2022-11-04T09:23:50;9.50;1.00
36322;DHT22;23564;48.290;11.460;2022-11-04T09:26:16;9.60;1.00
36322;DHT22;23564;48.290;11.460;2022-11-04T09:28:42;9.60;1.00
36322;DHT22;23564;48.290;11.460;2022-11-04T09:31:10;9.70;1.00
36322;DHT22;23564;48.290;11.460;2022-11-04T09:33:36;9.70;1.00
36322;DHT22;23564;48.290;11.460;2022-11-04T09:36:02;9.60;1.00
36322;DHT22;23564;48.290;11.460;2022-11-04T09:38:28;9.60;1.00
36322;DHT22;23564;48.290;11.460;2022-11-04T09:40:53;9.60;1.00
36322;DHT22;23564;48.290;11.460;2022-11-04T09:43:52;9.60;1.00
36322;DHT22;23564;48.290;11.460;2022-11-04T09:46:20;9.70;1.00
36322;DHT22;23564;48.290;11.460;2022-11-04T09:48:48;9.70;1.00
36322;DHT22;23564;48.290;11.460;2022-11-04T09:51:18;9.50;1.00
36322;DHT22;23564;48.290;11.460;2022-11-04T09:53:55;9.50;1.00
36322;DHT22;23564;48.290;11.460;2022-11-04T09:56:25;9.50;1.00
36322;DHT22;23564;48.290;11.460;2022-11-04T09:58:52;9.40;1.00
36322;DHT22;23564;48.290;11.460;2022-11-04T10:06:43;9.40;1.00
36322;DHT22;23564;48.290;11.460;2022-11-04T10:15:43;9.30;1.00
36322;DHT22;23564;48.290;11.460;2022-11-04T10:18:30;9.30;1.00
36322;DHT22;23564;48.290;11.460;2022-11-04T10:26:40;9.40;1.00
36322;DHT22;23564;48.290;11.460;2022-11-04T10:29:25;9.40;1.00
36322;DHT22;23564;48.290;11.460;2022-11-04T10:31:54;9.50;1.00
36322;DHT22;23564;48.290;11.460;2022-11-04T10:34:35;9.50;1.00
36322;DHT22;23564;48.290;11.460;2022-11-04T10:37:02;9.60;1.00
36322;DHT22;23564;48.290;11.460;2022-11-04T10:39:31;9.60;1.00
36322;DHT22;23564;48.290;11.460;2022-11-04T10:41:59;9.70;1.00
36322;DHT22;23564;48.290;11.460;2022-11-04T10:44:32;9.70;1.00
36322;DHT22;23564;48.290;11.460;2022-11-04T10:50:11;9.80;1.00
36322;DHT22;23564;48.290;11.460;2022-11-04T10:52:39;9.80;1.00
36322;DHT22;23564;48.290;11.460;2022-11-04T10:55:38;9.90;1.00
36322;DHT22;23564;48.290;11.460;2022-11-04T10:58:14;9.80;1.00
36322;DHT22;23564;48.290;11.460;2022-11-04T11:00:41;9.80;1.00
36322;DHT22;23564;48.290;11.460;2022-11-04T11:06:13;9.80;1.00
36322;DHT22;23564;48.290;11.460;2022-11-04T11:08:40;9.80;1.00
36322;DHT22;23564;48.290;11.460;2022-11-04T11:11:07;9.90;1.00
36322;DHT22;23564;48.290;11.460;2022-11-04T11:13:42;10.00;1.00
36322;DHT22;23564;48.290;11.460;2022-11-04T11:16:17;10.00;1.00
36322;DHT22;23564;48.290;11.460;2022-11-04T11:18:43;10.00;1.00
36322;DHT22;23564;48.290;11.460;2022-11-04T11:21:12;10.10;1.00
36322;DHT22;23564;48.290;11.460;2022-11-04T11:23:41;10.20;1.00
36322;DHT22;23564;48.290;11.460;2022-11-04T11:26:10;10.20;1.00
36322;DHT22;23564;48.290;11.460;2022-11-04T11:28:38;10.20;1.00
36322;DHT22;23564;48.290;11.460;2022-11-04T11:31:14;10.10;1.00
36322;DHT22;23564;48.290;11.460;2022-11-04T11:33:55;10.10;1.00
36322;DHT22;23564;48.290;11.460;2022-11-04T11:36:32;10.10;1.00
36322;DHT22;23564;48.290;11.460;2022-11-04T11:39:04;10.10;1.00
36322;DHT22;23564;48.290;11.460;2022-11-04T11:41:33;10.10;1.00
36322;DHT22;23564;48.290;11.460;2022-11-04T11:44:06;10.20;1.00
36322;DHT22;23564;48.290;11.460;2022-11-04T11:46:49;10.20;1.00
36322;DHT22;23564;48.290;11.460;2022-11-04T11:49:28;10.30;1.00
36322;DHT22;23564;48.290;11.460;2022-11-04T11:51:55;10.30;1.00
36322;DHT22;23564;48.290;11.460;2022-11-04T11:54:40;10.30;1.00
36322;DHT22;23564;48.290;11.460;2022-11-04T11:57:21;10.30;1.00
36322;DHT22;23564;48.290;11.460;2022-11-04T12:00:00;10.30;1.00
36322;DHT22;23564;48.290;11.460;2022-11-04T12:02:55;10.30;1.00
36322;DHT22;23564;48.290;11.460;2022-11-04T12:13:48;10.30;1.00
36322;DHT22;23564;48.290;11.460;2022-11-04T12:22:01;10.30;1.00
36322;DHT22;23564;48.290;11.460;2022-11-04T12:30:07;10.30;1.00
36322;DHT22;23564;48.290;11.460;2022-11-04T12:32:56;10.30;1.00
36322;DHT22;23564;48.290;11.460;2022-11-04T12:40:59;10.40;1.00
36322;DHT22;23564;48.290;11.460;2022-11-04T12:43:44;10.20;99.90
36322;DHT22;23564;48.290;11.460;2022-11-04T12:57:17;10.20;1.00
36322;DHT22;23564;48.290;11.460;2022-11-04T13:02:48;10.30;1.00
36322;DHT22;23564;48.290;11.460;2022-11-04T13:10:59;10.40;1.00
36322;DHT22;23564;48.290;11.460;2022-11-04T13:13:27;10.40;1.00
36322;DHT22;23564;48.290;11.460;2022-11-04T13:15:57;10.40;1.00
36322;DHT22;23564;48.290;11.460;2022-11-04T13:18:27;10.40;1.00
36322;DHT22;23564;48.290;11.460;2022-11-04T13:21:02;10.50;1.00
36322;DHT22;23564;48.290;11.460;2022-11-04T13:26:17;10.50;1.00
36322;DHT22;23564;48.290;11.460;2022-11-04T13:28:45;10.40;1.00
36322;DHT22;23564;48.290;11.460;2022-11-04T13:31:21;10.40;1.00
36322;DHT22;23564;48.290;11.460;2022-11-04T13:34:08;10.30;1.00
36322;DHT22;23564;48.290;11.460;2022-11-04T13:36:45;10.30;1.00
36322;DHT22;23564;48.290;11.460;2022-11-04T13:39:35;10.20;1.00
36322;DHT22;23564;48.290;11.460;2022-11-04T13:42:06;10.20;1.00
36322;DHT22;23564;48.290;11.460;2022-11-04T13:44:42;10.20;1.00
36322;DHT22;23564;48.290;11.460;2022-11-04T13:47:37;10.20;1.00
36322;DHT22;23564;48.290;11.460;2022-11-04T13:50:31;10.20;1.00
36322;DHT22;23564;48.290;11.460;2022-11-04T13:52:57;10.20;1.00
36322;DHT22;23564;48.290;11.460;2022-11-04T13:55:23;10.20;1.00
36322;DHT22;23564;48.290;11.460;2022-11-04T14:00:21;10.10;1.00
36322;DHT22;23564;48.290;11.460;2022-11-04T14:08:11;10.10;1.00
36322;DHT22;23564;48.290;11.460;2022-11-04T14:13:40;10.00;1.00
36322;DHT22;23564;48.290;11.460;2022-11-04T14:18:53;10.00;1.00
36322;DHT22;23564;48.290;11.460;2022-11-04T14:21:24;10.10;1.00
36322;DHT22;23564;48.290;11.460;2022-11-04T14:23:55;10.00;1.00
36322;DHT22;23564;48.290;11.460;2022-11-04T14:29:21;9.90;1.00
36322;DHT22;23564;48.290;11.460;2022-11-04T14:31:52;9.80;1.00
36322;DHT22;23564;48.290;11.460;2022-11-04T14:34:31;9.80;1.00
36322;DHT22;23564;48.290;11.460;2022-11-04T14:36:59;9.70;1.00
36322;DHT22;23564;48.290;11.460;2022-11-04T14:39:33;9.70;1.00
36322;DHT22;23564;48.290;11.460;2022-11-04T14:42:03;9.70;1.00
36322;DHT22;23564;48.290;11.460;2022-11-04T14:44:44;9.70;1.00
36322;DHT22;23564;48.290;11.460;2022-11-04T14:47:39;9.70;1.00
36322;DHT22;23564;48.290;11.460;2022-11-04T14:50:06;9.70;1.00
36322;DHT22;23564;48.290;11.460;2022-11-04T14:52:55;9.60;1.00
36322;DHT22;23564;48.290;11.460;2022-11-04T14:55:27;9.60;1.00
36322;DHT22;23564;48.290;11.460;2022-11-04T14:57:57;9.60;1.00
36322;DHT22;23564;48.290;11.460;2022-11-04T15:00:30;9.60;1.00
36322;DHT22;23564;48.290;11.460;2022-11-04T15:03:15;9.60;1.00
36322;DHT22;23564;48.290;11.460;2022-11-04T15:05:57;9.60;1.00
36322;DHT22;23564;48.290;11.460;2022-11-04T15:11:20;9.60;1.00
36322;DHT22;23564;48.290;11.460;2022-11-04T15:14:21;9.60;1.00
36322;DHT22;23564;48.290;11.460;2022-11-04T15:16:49;9.50;1.00
36322;DHT22;23564;48.290;11.460;2022-11-04T15:19:34;9.50;1.00
36322;DHT22;23564;48.290;11.460;2022-11-04T15:22:03;9.40;1.00
36322;DHT22;23564;48.290;11.460;2022-11-04T15:24:29;9.30;1.00
36322;DHT22;23564;48.290;11.460;2022-11-04T15:27:02;9.30;1.00
36322;DHT22;23564;48.290;11.460;2022-11-04T15:29:29;9.20;1.00
36322;DHT22;23564;48.290;11.460;2022-11-04T15:31:57;9.20;1.00
36322;DHT22;23564;48.290;11.460;2022-11-04T15:34:28;9.20;1.00
36322;DHT22;23564;48.290;11.460;2022-11-04T15:36:56;9.10;1.00
36322;DHT22;23564;48.290;11.460;2022-11-04T15:39:29;9.10;1.00
36322;DHT22;23564;48.290;11.460;2022-11-04T15:42:01;9.00;1.00
36322;DHT22;23564;48.290;11.460;2022-11-04T15:44:52;9.00;1.00
36322;DHT22;23564;48.290;11.460;2022-11-04T15:49:48;9.00;1.00
36322;DHT22;23564;48.290;11.460;2022-11-04T15:52:26;8.90;1.00
36322;DHT22;23564;48.290;11.460;2022-11-04T15:54:56;8.90;1.00
36322;DHT22;23564;48.290;11.460;2022-11-04T15:57:33;8.90;1.00
36322;DHT22;23564;48.290;11.460;2022-11-04T16:00:08;8.80;1.00
36322;DHT22;23564;48.290;11.460;2022-11-04T16:02:46;8.80;1.00
36322;DHT22;23564;48.290;11.460;2022-11-04T16:05:28;8.80;1.00
36322;DHT22;23564;48.290;11.460;2022-11-04T16:07:55;8.80;1.00
36322;DHT22;23564;48.290;11.460;2022-11-04T16:10:37;8.70;1.00
36322;DHT22;23564;48.290;11.460;2022-11-04T16:20:48;8.50;1.00
36322;DHT22;23564;48.290;11.460;2022-11-04T16:23:23;8.40;1.00
36322;DHT22;23564;48.290;11.460;2022-11-04T16:26:16;8.30;1.00
36322;DHT22;23564;48.290;11.460;2022-11-04T16:28:52;8.30;1.00
36322;DHT22;23564;48.290;11.460;2022-11-04T16:31:31;8.20;1.00
36322;DHT22;23564;48.290;11.460;2022-11-04T16:33:57;8.20;1.00
36322;DHT22;23564;48.290;11.460;2022-11-04T16:36:23;8.10;1.00
36322;DHT22;23564;48.290;11.460;2022-11-04T16:38:59;8.10;1.00
36322;DHT22;23564;48.290;11.460;2022-11-04T16:41:29;8.00;1.00
36322;DHT22;23564;48.290;11.460;2022-11-04T16:43:57;7.90;1.00
36322;DHT22;23564;48.290;11.460;2022-11-04T16:46:23;7.90;1.00
36322;DHT22;23564;48.290;11.460;2022-11-04T16:48:49;7.80;1.00
36322;DHT22;23564;48.290;11.460;2022-11-04T16:51:17;7.70;1.00
36322;DHT22;23564;48.290;11.460;2022-11-04T16:53:45;7.70;1.00
36322;DHT22;23564;48.290;11.460;2022-11-04T16:56:11;7.70;1.00
36322;DHT22;23564;48.290;11.460;2022-11-04T16:58:37;7.60;1.00
36322;DHT22;23564;48.290;11.460;2022-11-04T17:01:03;7.60;1.00
36322;DHT22;23564;48.290;11.460;2022-11-04T17:03:28;7.60;1.00
36322;DHT22;23564;48.290;11.460;2022-11-04T17:05:55;7.50;1.00
36322;DHT22;23564;48.290;11.460;2022-11-04T17:08:22;7.50;1.00
36322;DHT22;23564;48.290;11.460;2022-11-04T17:10:48;7.50;1.00
36322;DHT22;23564;48.290;11.460;2022-11-04T17:13:14;7.50;1.00
36322;DHT22;23564;48.290;11.460;2022-11-04T17:15:39;7.50;1.00
36322;DHT22;23564;48.290;11.460;2022-11-04T17:18:06;7.50;1.00
36322;DHT22;23564;48.290;11.460;2022-11-04T17:20:31;7.60;1.00
36322;DHT22;23564;48.290;11.460;2022-11-04T17:22:58;7.60;1.00
36322;DHT22;23564;48.290;11.460;2022-11-04T17:25:26;7.60;1.00
36322;DHT22;23564;48.290;11.460;2022-11-04T17:27:53;7.50;1.00
36322;DHT22;23564;48.290;11.460;2022-11-04T17:30:20;7.50;1.00
36322;DHT22;23564;48.290;11.460;2022-11-04T17:32:46;7.50;1.00
36322;DHT22;23564;48.290;11.460;2022-11-04T17:35:13;7.50;1.00
36322;DHT22;23564;48.290;11.460;2022-11-04T17:37:39;7.50;1.00
36322;DHT22;23564;48.290;11.460;2022-11-04T17:40:07;7.60;1.00
36322;DHT22;23564;48.290;11.460;2022-11-04T17:42:33;7.60;1.00
36322;DHT22;23564;48.290;11.460;2022-11-04T17:45:17;7.50;1.00
36322;DHT22;23564;48.290;11.460;2022-11-04T17:47:43;7.50;1.00
36322;DHT22;23564;48.290;11.460;2022-11-04T17:50:08;7.50;1.00
36322;DHT22;23564;48.290;11.460;2022-11-04T17:52:34;7.50;1.00
36322;DHT22;23564;48.290;11.460;2022-11-04T17:55:00;7.50;1.00
36322;DHT22;23564;48.290;11.460;2022-11-04T17:57:26;7.50;1.00
36322;DHT22;23564;48.290;11.460;2022-11-04T17:59:51;7.40;1.00
36322;DHT22;23564;48.290;11.460;2022-11-04T18:02:17;7.40;1.00
36322;DHT22;23564;48.290;11.460;2022-11-04T18:04:44;7.40;1.00
36322;DHT22;23564;48.290;11.460;2022-11-04T18:07:10;7.30;1.00
36322;DHT22;23564;48.290;11.460;2022-11-04T18:09:35;7.40;1.00
36322;DHT22;23564;48.290;11.460;2022-11-04T18:12:04;7.40;1.00
36322;DHT22;23564;48.290;11.460;2022-11-04T18:14:48;7.50;1.00
36322;DHT22;23564;48.290;11.460;2022-11-04T18:17:13;7.50;1.00
36322;DHT22;23564;48.290;11.460;2022-11-04T18:19:39;7.50;1.00
36322;DHT22;23564;48.290;11.460;2022-11-04T18:22:04;7.50;1.00
36322;DHT22;23564;48.290;11.460;2022-11-04T18:24:30;7.50;1.00
36322;DHT22;23564;48.290;11.460;2022-11-04T18:26:56;7.50;1.00
36322;DHT22;23564;48.290;11.460;2022-11-04T18:29:22;7.40;1.00